Time;durP1;ratioP1;P1;durP2;ratioP2;P2;SDS_P1;SDS_P2;PMS_P1;PMS_P2;Temp;Humidity;BMP_temperature;BMP_pressure;BME280_temperature;BME280_humidity;BME280_pressure;Samples;Min_cycle;Max_cycle;Signal;HPM_P1;HPM_P2
2022/07/08 00:00:41;;;;;;;8.82;2.30;;;14.80;99.90;;;;;;5050331;28;20037;-75
2022/07/08 00:03:07;;;;;;;11.02;2.55;;;14.80;99.90;;;;;;5051575;28;20076;-75
2022/07/08 00:05:33;;;;;;;9.30;2.58;;;14.80;99.90;;;;;;5051091;28;20075;-75
2022/07/08 00:07:59;;;;;;;11.02;2.67;;;14.40;99.90;;;;;;5050752;28;20466;-75
2022/07/08 00:10:25;;;;;;;8.80;2.03;;;14.90;99.90;;;;;;5055428;28;20107;-75
2022/07/08 00:12:51;;;;;;;12.23;2.22;;;14.70;99.90;;;;;;5054313;28;20041;-76
2022/07/08 00:15:17;;;;;;;8.35;2.10;;;14.40;99.90;;;;;;5053723;28;20045;-75
2022/07/08 00:17:43;;;;;;;8.10;1.92;;;;;;;;;;5053929;28;20055;-76
2022/07/08 00:20:10;;;;;;;7.35;2.00;;;14.70;99.90;;;;;;5053348;28;20128;-76
2022/07/08 00:22:36;;;;;;;6.88;2.05;;;14.60;99.90;;;;;;5054012;28;20091;-75
2022/07/08 00:25:03;;;;;;;7.78;1.98;;;14.20;99.90;;;;;;5054637;28;20049;-74
2022/07/08 00:27:29;;;;;;;7.85;2.15;;;14.90;99.90;;;;;;5052944;28;20051;-75
2022/07/08 00:29:54;;;;;;;9.65;2.00;;;14.30;99.90;;;;;;5053588;28;20123;-77
2022/07/08 00:32:20;;;;;;;11.13;2.50;;;14.90;99.90;;;;;;5055234;28;20045;-76
2022/07/08 00:34:46;;;;;;;10.02;2.00;;;14.50;99.90;;;;;;5054047;28;20544;-77
2022/07/08 00:37:11;;;;;;;10.10;2.40;;;14.30;99.90;;;;;;5053547;28;20076;-75
2022/07/08 00:39:37;;;;;;;8.30;2.03;;;;;;;;;;5054229;28;20112;-79
2022/07/08 00:42:04;;;;;;;6.93;1.88;;;;;;;;;;5054288;28;20511;-76
2022/07/08 00:44:30;;;;;;;9.25;2.20;;;;;;;;;;5054688;28;20481;-76
2022/07/08 00:46:56;;;;;;;6.15;1.50;;;;;;;;;;5052322;28;20041;-76
2022/07/08 00:49:22;;;;;;;12.48;2.55;;;14.30;99.90;;;;;;5053909;28;20535;-76
2022/07/08 00:51:49;;;;;;;10.82;2.80;;;14.40;99.90;;;;;;5053267;28;20076;-75
2022/07/08 00:54:16;;;;;;;8.40;2.38;;;14.30;99.90;;;;;;5052366;28;20116;-76
2022/07/08 00:56:43;;;;;;;8.63;2.72;;;14.30;99.90;;;;;;5052976;28;20470;-76
2022/07/08 00:59:09;;;;;;;7.30;2.22;;;14.20;99.90;;;;;;5053318;28;20163;-76
2022/07/08 01:01:35;;;;;;;7.10;2.05;;;14.20;99.90;;;;;;5052628;28;20486;-76
2022/07/08 01:04:01;;;;;;;10.45;2.65;;;;;;;;;;5052930;28;20041;-76
2022/07/08 01:06:27;;;;;;;9.88;2.45;;;14.20;99.90;;;;;;5054613;28;20079;-76
2022/07/08 01:08:53;;;;;;;7.53;2.35;;;14.20;99.90;;;;;;5034946;28;20076;-75
2022/07/08 01:11:19;;;;;;;11.13;2.40;;;14.10;99.90;;;;;;5052897;28;20550;-75
2022/07/08 01:13:46;;;;;;;8.05;1.98;;;14.00;99.90;;;;;;5052963;28;20128;-76
2022/07/08 01:16:12;;;;;;;8.75;3.05;;;;;;;;;;5053414;28;20044;-76
2022/07/08 01:18:40;;;;;;;13.27;2.55;;;13.80;99.90;;;;;;5036212;28;20087;-76
2022/07/08 01:21:06;;;;;;;13.93;2.60;;;;;;;;;;5053340;28;20505;-75
2022/07/08 01:23:31;;;;;;;7.18;1.80;;;13.80;99.90;;;;;;5052707;28;20056;-76
2022/07/08 01:25:59;;;;;;;5.70;2.08;;;;;;;;;;5035634;28;20040;-76
2022/07/08 01:28:25;;;;;;;8.35;2.42;;;;;;;;;;5052802;28;20106;-76
2022/07/08 01:30:51;;;;;;;6.18;2.10;;;;;;;;;;5053232;28;20041;-76
2022/07/08 01:33:17;;;;;;;9.75;2.13;;;;;;;;;;5052477;28;20080;-76
2022/07/08 01:35:43;;;;;;;7.03;3.30;;;;;;;;;;5051812;28;20069;-76
2022/07/08 01:38:09;;;;;;;7.70;2.40;;;;;;;;;;5053774;28;20045;-76
2022/07/08 01:40:35;;;;;;;10.30;2.40;;;;;;;;;;5053651;28;20051;-75
2022/07/08 01:43:02;;;;;;;11.15;2.75;;;;;;;;;;5051438;28;20482;-76
2022/07/08 01:45:28;;;;;;;11.85;2.28;;;;;;;;;;5052610;28;20504;-75
2022/07/08 01:47:54;;;;;;;10.38;3.10;;;;;;;;;;5053196;28;20033;-76
2022/07/08 01:50:20;;;;;;;7.32;2.25;;;13.40;99.90;;;;;;5053011;28;20406;-75
2022/07/08 01:52:46;;;;;;;5.82;2.00;;;13.30;99.90;;;;;;5052373;28;20053;-75
2022/07/08 01:55:12;;;;;;;7.25;2.33;;;;;;;;;;5053283;28;20037;-75
2022/07/08 01:57:38;;;;;;;10.10;2.30;;;;;;;;;;5051348;28;20055;-76
2022/07/08 02:00:05;;;;;;;7.43;2.38;;;;;;;;;;5053054;28;20087;-76
2022/07/08 02:02:32;;;;;;;12.93;2.75;;;;;;;;;;5053494;28;20041;-75
2022/07/08 02:04:58;;;;;;;7.68;2.38;;;;;;;;;;5052212;28;20448;-76
2022/07/08 02:07:24;;;;;;;9.15;2.55;;;13.40;99.90;;;;;;5053130;28;20501;-76
2022/07/08 02:09:49;;;;;;;10.35;2.70;;;13.00;99.90;;;;;;5052774;28;20095;-76
2022/07/08 02:12:21;;;;;;;9.32;2.42;;;13.00;99.90;;;;;;5034391;28;20075;-76
2022/07/08 02:14:50;;;;;;;8.93;3.15;;;12.90;99.90;;;;;;5053043;28;20045;-75
2022/07/08 02:17:17;;;;;;;8.32;2.20;;;12.80;99.90;;;;;;5051490;28;20036;-76
2022/07/08 02:19:43;;;;;;;9.52;2.60;;;13.10;99.90;;;;;;5034101;28;20091;-75
2022/07/08 02:22:09;;;;;;;12.75;2.90;;;13.40;99.90;;;;;;5034620;28;20464;-76
2022/07/08 02:24:36;;;;;;;9.98;3.38;;;13.20;99.90;;;;;;5051977;28;20057;-76
2022/07/08 02:27:02;;;;;;;9.18;2.65;;;12.70;99.90;;;;;;5051539;28;20063;-76
2022/07/08 02:29:28;;;;;;;6.55;2.33;;;12.70;99.90;;;;;;5051651;28;20045;-76
2022/07/08 02:31:53;;;;;;;11.50;2.30;;;12.60;99.90;;;;;;5050624;28;20393;-76
2022/07/08 02:34:19;;;;;;;10.27;2.63;;;12.60;99.90;;;;;;5050763;28;20561;-75
2022/07/08 02:36:45;;;;;;;6.32;2.53;;;12.60;99.90;;;;;;5034489;28;20154;-75
2022/07/08 02:39:12;;;;;;;9.23;2.20;;;12.60;99.90;;;;;;5050631;28;20037;-75
2022/07/08 02:41:38;;;;;;;9.60;2.65;;;12.60;99.90;;;;;;5051379;28;20482;-75
2022/07/08 02:44:05;;;;;;;5.30;2.05;;;12.90;99.90;;;;;;5051929;28;20051;-76
2022/07/08 02:46:30;;;;;;;11.70;2.70;;;12.60;99.90;;;;;;5050528;28;20049;-76
2022/07/08 02:48:57;;;;;;;5.70;2.03;;;12.60;99.90;;;;;;5051968;28;20048;-75
2022/07/08 02:51:22;;;;;;;5.25;2.00;;;13.20;99.90;;;;;;5034646;28;20041;-75
2022/07/08 02:53:48;;;;;;;8.18;2.63;;;13.50;99.90;;;;;;5051396;28;20389;-75
2022/07/08 02:56:14;;;;;;;7.82;2.35;;;12.30;99.90;;;;;;5051024;28;20033;-75
2022/07/08 02:58:39;;;;;;;7.20;2.40;;;12.60;99.90;;;;;;5052533;28;20037;-75
2022/07/08 03:01:05;;;;;;;6.80;2.20;;;12.20;99.90;;;;;;5051035;28;20037;-75
2022/07/08 03:03:30;;;;;;;10.10;2.53;;;12.50;99.90;;;;;;5051258;28;20049;-75
2022/07/08 03:05:56;;;;;;;8.25;2.47;;;12.50;99.90;;;;;;5050403;28;20052;-75
2022/07/08 03:08:22;;;;;;;6.68;2.45;;;12.90;99.90;;;;;;5050245;28;20048;-76
2022/07/08 03:10:49;;;;;;;8.20;2.10;;;12.60;99.90;;;;;;5052106;28;20045;-75
2022/07/08 03:13:15;;;;;;;7.53;2.70;;;12.50;99.90;;;;;;5052177;28;20049;-76
2022/07/08 03:15:40;;;;;;;9.00;2.60;;;13.30;99.90;;;;;;5051425;28;20045;-75
2022/07/08 03:18:06;;;;;;;6.57;2.58;;;13.00;99.90;;;;;;5050653;28;20051;-75
2022/07/08 03:20:32;;;;;;;11.45;3.15;;;12.90;99.90;;;;;;5050975;28;20037;-75
2022/07/08 03:22:58;;;;;;;9.57;3.28;;;12.60;99.90;;;;;;5050561;28;20085;-75
2022/07/08 03:25:24;;;;;;;10.60;3.30;;;12.90;99.90;;;;;;5052120;28;20095;-75
2022/07/08 03:27:49;;;;;;;9.15;2.78;;;12.50;99.90;;;;;;5050756;28;20094;-76
2022/07/08 03:30:15;;;;;;;8.50;2.25;;;12.50;99.90;;;;;;5049660;28;20041;-75
2022/07/08 03:32:41;;;;;;;10.15;3.40;;;12.60;99.90;;;;;;5050831;28;20045;-75
2022/07/08 03:35:07;;;;;;;9.48;2.33;;;12.60;99.90;;;;;;5051384;28;20045;-75
2022/07/08 03:37:32;;;;;;;11.45;3.60;;;12.60;99.90;;;;;;5049917;28;20041;-75
2022/07/08 03:41:19;;;;;;;9.43;2.60;;;13.00;99.90;;;;;;5050267;28;20047;-75
2022/07/08 03:42:44;;;;;;;7.60;2.47;;;12.70;99.90;;;;;;5051324;28;20049;-75
2022/07/08 03:45:10;;;;;;;14.70;2.88;;;12.70;99.90;;;;;;5054804;28;20037;-75
2022/07/08 03:47:35;;;;;;;10.18;2.65;;;13.10;99.90;;;;;;5055979;28;20063;-76
2022/07/08 03:50:01;;;;;;;9.27;2.50;;;13.10;99.90;;;;;;5054504;28;20040;-75
2022/07/08 03:52:27;;;;;;;14.20;2.83;;;12.60;99.90;;;;;;5055681;28;20041;-75
2022/07/08 03:54:53;;;;;;;7.50;2.20;;;13.00;99.90;;;;;;5054192;28;20060;-74
2022/07/08 03:57:18;;;;;;;10.18;3.03;;;13.00;99.90;;;;;;5055050;28;20035;-75
2022/07/08 03:59:47;;;;;;;7.72;2.50;;;13.90;99.90;;;;;;5055565;28;20037;-75
2022/07/08 04:02:12;;;;;;;13.25;2.97;;;12.90;99.90;;;;;;5055215;28;20052;-75
2022/07/08 04:04:38;;;;;;;10.30;2.80;;;13.10;99.90;;;;;;5055061;28;20028;-75
2022/07/08 04:07:04;;;;;;;8.95;2.33;;;13.10;99.90;;;;;;5053796;28;20064;-75
2022/07/08 04:09:29;;;;;;;13.05;2.47;;;13.10;99.90;;;;;;5054378;28;20045;-75
2022/07/08 04:11:55;;;;;;;10.70;2.92;;;13.20;99.90;;;;;;5054027;28;20045;-75
2022/07/08 04:14:21;;;;;;;9.70;2.92;;;13.20;99.90;;;;;;5055397;28;20041;-75
2022/07/08 04:16:46;;;;;;;12.35;2.95;;;13.20;99.90;;;;;;5053798;28;20052;-75
2022/07/08 04:19:12;;;;;;;6.78;2.30;;;13.30;99.90;;;;;;5054470;28;20047;-75
2022/07/08 04:21:38;;;;;;;10.95;2.58;;;13.40;99.90;;;;;;5053753;28;20056;-75
2022/07/08 04:24:04;;;;;;;9.02;2.42;;;;;;;;;;5054820;28;20049;-75
2022/07/08 04:26:31;;;;;;;11.82;3.35;;;;;;;;;;5054569;28;20124;-75
2022/07/08 04:29:01;;;;;;;9.43;2.92;;;;;;;;;;5053568;28;20049;-74
2022/07/08 04:31:27;;;;;;;7.40;2.90;;;13.70;99.90;;;;;;5053877;28;20102;-75
2022/07/08 04:33:53;;;;;;;14.88;3.45;;;13.80;99.90;;;;;;5053883;28;20029;-75
2022/07/08 04:36:20;;;;;;;8.75;2.90;;;13.80;99.90;;;;;;5054010;28;20094;-74
2022/07/08 04:38:45;;;;;;;8.75;2.78;;;13.80;99.90;;;;;;5052766;28;20079;-75
2022/07/08 04:41:11;;;;;;;6.32;2.58;;;13.90;99.90;;;;;;5054727;28;20083;-75
2022/07/08 04:43:37;;;;;;;8.00;2.55;;;14.10;99.90;;;;;;5054944;28;20068;-75
2022/07/08 04:46:02;;;;;;;11.23;3.08;;;14.60;99.90;;;;;;5052376;28;20087;-75
2022/07/08 04:48:29;;;;;;;10.73;3.30;;;;;;;;;;5036856;28;20033;-74
2022/07/08 04:50:55;;;;;;;5.80;2.10;;;;;;;;;;5054119;28;20091;-75
2022/07/08 04:53:21;;;;;;;11.82;2.88;;;;;;;;;;5053516;28;20119;-75
2022/07/08 04:55:47;;;;;;;8.93;2.75;;;14.50;99.90;;;;;;5053239;28;20040;-75
2022/07/08 04:58:12;;;;;;;9.07;2.80;;;14.60;99.90;;;;;;5053186;28;20064;-75
2022/07/08 05:00:39;;;;;;;11.43;2.50;;;;;;;;;;5052742;28;20108;-74
2022/07/08 05:03:04;;;;;;;8.60;3.13;;;14.50;99.90;;;;;;5054084;28;20041;-75
2022/07/08 05:05:30;;;;;;;12.43;3.55;;;14.60;99.90;;;;;;5036595;28;20102;-75
2022/07/08 05:07:59;;;;;;;8.73;2.78;;;14.50;99.90;;;;;;5052867;28;20394;-74
2022/07/08 05:10:25;;;;;;;10.82;2.90;;;14.70;99.90;;;;;;5053589;28;20045;-74
2022/07/08 05:12:51;;;;;;;10.48;3.05;;;14.80;99.90;;;;;;5054012;28;20544;-75
2022/07/08 05:15:17;;;;;;;9.05;2.85;;;15.60;99.90;;;;;;5053774;28;20049;-75
2022/07/08 05:17:43;;;;;;;8.45;2.70;;;14.90;99.90;;;;;;5052643;28;20037;-74
2022/07/08 05:20:10;;;;;;;12.35;2.60;;;;;;;;;;5052888;28;20045;-74
2022/07/08 05:22:36;;;;;;;10.73;2.50;;;15.10;99.90;;;;;;5053279;28;20056;-75
2022/07/08 05:25:07;;;;;;;9.98;3.20;;;15.10;99.90;;;;;;5052420;28;20063;-75
2022/07/08 05:27:33;;;;;;;8.85;2.30;;;15.20;99.90;;;;;;5053105;28;20068;-75
2022/07/08 05:29:59;;;;;;;16.42;3.28;;;15.20;99.90;;;;;;5051769;28;20041;-76
2022/07/08 05:32:24;;;;;;;13.05;3.45;;;15.20;99.90;;;;;;5053794;28;20063;-75
2022/07/08 05:34:53;;;;;;;12.07;3.42;;;;;;;;;;5051967;28;20071;-75
2022/07/08 05:37:18;;;;;;;9.65;2.80;;;15.40;99.90;;;;;;5052767;28;20067;-75
2022/07/08 05:39:44;;;;;;;11.15;3.03;;;16.20;99.90;;;;;;5053592;28;20051;-75
2022/07/08 05:42:11;;;;;;;7.57;2.65;;;;;;;;;;5052683;28;20120;-76
2022/07/08 05:44:37;;;;;;;8.73;2.53;;;;;;;;;;5052476;28;20099;-77
2022/07/08 05:47:07;;;;;;;11.35;3.40;;;;;;;;;;5051980;28;20124;-74
2022/07/08 05:49:34;;;;;;;9.98;2.63;;;15.90;99.90;;;;;;5051582;28;20048;-74
2022/07/08 05:52:00;;;;;;;12.55;2.63;;;15.90;99.90;;;;;;5053099;28;20040;-75
2022/07/08 05:54:27;;;;;;;5.95;2.10;;;;;;;;;;5053464;28;20480;-75
2022/07/08 05:56:53;;;;;;;7.70;2.20;;;;;;;;;;5051327;28;20078;-74
2022/07/08 05:59:19;;;;;;;6.22;2.00;;;16.20;99.90;;;;;;5051280;28;20497;-75
2022/07/08 06:01:45;;;;;;;10.23;2.38;;;16.20;99.90;;;;;;5054784;28;20040;-76
2022/07/08 06:04:11;;;;;;;12.43;3.17;;;;;;;;;;5068510;28;20048;-75
2022/07/08 06:06:36;;;;;;;10.32;3.17;;;16.40;99.90;;;;;;5060534;28;20049;-76
2022/07/08 06:09:02;;;;;;;11.50;2.90;;;16.60;99.90;;;;;;5048733;28;20087;-78
2022/07/08 06:11:28;;;;;;;10.85;4.05;;;16.50;99.90;;;;;;5031368;28;20052;-78
2022/07/08 06:13:53;;;;;;;13.45;3.15;;;16.50;99.90;;;;;;5048649;28;20086;-78
2022/07/08 06:16:20;;;;;;;8.10;2.38;;;16.50;99.90;;;;;;5050471;28;20040;-78
2022/07/08 06:18:45;;;;;;;13.13;3.60;;;16.40;99.90;;;;;;5045924;28;20036;-78
2022/07/08 06:21:14;;;;;;;11.13;2.72;;;;;;;;;;5049926;28;20064;-76
2022/07/08 06:23:40;;;;;;;12.15;2.88;;;16.90;99.90;;;;;;5049910;28;20124;-75
2022/07/08 06:26:05;;;;;;;9.55;2.92;;;16.90;99.90;;;;;;5056505;28;20457;-78
2022/07/08 06:28:31;;;;;;;7.70;2.47;;;17.60;99.90;;;;;;5069348;28;20105;-78
2022/07/08 06:30:57;;;;;;;7.35;2.78;;;17.10;99.90;;;;;;5068554;28;20508;-80
2022/07/08 06:33:23;;;;;;;9.27;2.70;;;17.20;99.90;;;;;;5069422;28;20462;-79
2022/07/08 06:35:48;;;;;;;9.23;2.95;;;17.30;99.90;;;;;;5053292;28;20048;-78
2022/07/08 06:38:14;;;;;;;9.13;2.80;;;17.30;99.90;;;;;;5068838;28;20045;-78
2022/07/08 06:40:40;;;;;;;12.20;3.85;;;17.20;99.90;;;;;;5069076;28;20033;-79
2022/07/08 06:43:05;;;;;;;10.52;2.92;;;17.30;99.90;;;;;;5069256;28;20115;-79
2022/07/08 06:45:32;;;;;;;15.15;2.55;;;17.40;99.90;;;;;;5069138;28;20040;-79
2022/07/08 06:47:58;;;;;;;9.10;2.60;;;;;;;;;;5063984;28;20056;-77
2022/07/08 06:50:24;;;;;;;8.50;2.72;;;;;;;;;;5034583;28;20055;-75
2022/07/08 06:52:50;;;;;;;13.95;2.95;;;17.80;99.90;;;;;;5052257;28;20037;-76
2022/07/08 06:55:16;;;;;;;7.32;2.92;;;17.90;99.90;;;;;;5063388;28;20318;-77
2022/07/08 06:57:42;;;;;;;10.90;2.92;;;;;;;;;;5050111;28;20037;-78
2022/07/08 07:00:08;;;;;;;10.50;2.13;;;;;;;;;;5050597;28;20041;-78
2022/07/08 07:02:34;;;;;;;10.10;2.55;;;;;;;;;;5051473;28;20048;-78
2022/07/08 07:05:00;;;;;;;8.93;2.03;;;;;;;;;;5056291;28;20044;-78
2022/07/08 07:07:29;;;;;;;10.45;2.33;;;;;;;;;;5071055;28;20048;-77
2022/07/08 07:09:57;;;;;;;6.90;2.45;;;;;;;;;;5059190;28;20074;-77
2022/07/08 07:12:31;;;;;;;12.43;2.25;;;;;;;;;;5048669;28;20155;-77
2022/07/08 07:14:57;;;;;;;9.85;2.50;;;;;;;;;;5063784;28;20093;-76
2022/07/08 07:17:23;;;;;;;10.63;3.13;;;;;;;;;;5051631;28;20048;-79
2022/07/08 07:19:52;;;;;;;7.15;2.47;;;;;;;;;;5050092;28;20091;-75
2022/07/08 07:22:20;;;;;;;10.93;2.95;;;;;;;;;;5049237;28;20068;-77
2022/07/08 07:24:48;;;;;;;8.18;3.17;;;;;;;;;;5048976;28;20061;-78
2022/07/08 07:27:14;;;;;;;12.15;2.95;;;;;;;;;;5048781;28;20053;-77
2022/07/08 07:29:40;;;;;;;5.85;2.15;;;;;;;;;;5049570;28;20843;-78
2022/07/08 07:32:09;;;;;;;11.93;2.50;;;;;;;;;;5050033;28;20191;-77
2022/07/08 07:34:40;;;;;;;9.32;2.92;;;;;;;;;;5049793;28;20045;-78
2022/07/08 07:37:09;;;;;;;7.25;2.20;;;;;;;;;;5048819;28;20079;-77
2022/07/08 07:39:34;;;;;;;9.15;2.80;;;18.20;99.90;;;;;;5049603;28;20044;-76
2022/07/08 07:42:00;;;;;;;8.27;2.00;;;18.20;99.90;;;;;;5052803;28;20045;-76
2022/07/08 07:44:26;;;;;;;4.93;2.08;;;18.30;99.90;;;;;;5051302;28;20087;-76
2022/07/08 07:46:51;;;;;;;8.45;2.95;;;18.70;99.90;;;;;;5062636;28;20044;-76
2022/07/08 07:49:17;;;;;;;6.97;2.17;;;18.40;99.90;;;;;;5069154;28;20048;-77
2022/07/08 07:51:42;;;;;;;8.35;2.67;;;18.40;99.90;;;;;;5070751;28;20493;-77
2022/07/08 07:54:08;;;;;;;10.73;2.40;;;18.40;99.90;;;;;;5059643;28;20115;-77
2022/07/08 07:56:34;;;;;;;14.07;3.42;;;18.40;99.90;;;;;;5059588;28;20032;-77
2022/07/08 07:58:59;;;;;;;7.95;2.33;;;18.50;99.90;;;;;;5070257;28;20079;-79
2022/07/08 08:01:25;;;;;;;13.55;2.83;;;18.50;99.90;;;;;;5054129;28;20040;-77
2022/07/08 08:03:50;;;;;;;8.05;1.98;;;18.50;99.90;;;;;;5050818;28;20090;-77
2022/07/08 08:06:18;;;;;;;9.02;2.10;;;18.60;99.90;;;;;;5050498;28;20068;-77
2022/07/08 08:08:44;;;;;;;7.68;2.10;;;;;;;;;;5033233;28;20041;-78
2022/07/08 08:11:10;;;;;;;8.63;2.08;;;;;;;;;;5045409;28;20059;-78
2022/07/08 08:13:36;;;;;;;7.47;2.78;;;;;;;;;;5068978;28;20099;-78
2022/07/08 08:16:02;;;;;;;9.40;2.35;;;18.90;99.90;;;;;;5067320;28;20132;-79
2022/07/08 08:18:28;;;;;;;8.80;2.20;;;18.80;99.90;;;;;;5049336;28;20120;-78
2022/07/08 08:20:54;;;;;;;9.75;2.80;;;18.90;99.90;;;;;;5059451;28;20037;-77
2022/07/08 08:23:19;;;;;;;8.18;2.42;;;18.90;99.90;;;;;;5055791;28;20044;-77
2022/07/08 08:25:45;;;;;;;9.40;2.38;;;19.00;99.90;;;;;;5068837;28;20375;-78
2022/07/08 08:28:10;;;;;;;5.07;1.73;;;19.00;99.90;;;;;;5060222;28;20044;-78
2022/07/08 08:30:36;;;;;;;6.50;1.80;;;19.00;99.90;;;;;;5061905;28;20072;-77
2022/07/08 08:33:02;;;;;;;7.85;2.25;;;19.20;99.90;;;;;;5054177;28;20671;-78
2022/07/08 08:35:28;;;;;;;11.63;2.35;;;19.10;99.90;;;;;;5076684;28;20757;-78
2022/07/08 08:37:53;;;;;;;5.90;1.85;;;19.00;99.90;;;;;;5069634;28;20093;-77
2022/07/08 08:40:24;;;;;;;7.43;2.28;;;19.10;99.90;;;;;;5057748;28;20390;-76
2022/07/08 08:42:50;;;;;;;5.72;1.60;;;19.40;99.90;;;;;;5061469;28;20052;-77
2022/07/08 08:45:15;;;;;;;7.95;2.25;;;19.20;99.90;;;;;;5058392;28;20041;-75
2022/07/08 08:47:45;;;;;;;5.60;2.05;;;19.70;99.90;;;;;;5047233;28;20036;-78
2022/07/08 08:52:56;;;;;;;5.47;1.53;;;19.40;99.90;;;;;;5061033;28;20093;-72
2022/07/08 08:55:22;;;;;;;5.78;1.85;;;;;;;;;;5070820;28;20379;-74
2022/07/08 08:57:48;;;;;;;6.28;1.70;;;;;;;;;;5055529;28;20540;-73
2022/07/08 09:00:14;;;;;;;10.50;1.73;;;;;;;;;;5070747;28;20466;-71
2022/07/08 09:02:40;;;;;;;6.68;2.10;;;;;;;;;;5051257;28;20099;-73
2022/07/08 09:05:07;;;;;;;10.75;2.13;;;;;;;;;;5053542;28;20037;-74
2022/07/08 09:07:33;;;;;;;10.18;1.85;;;;;;;;;;5057954;28;20033;-77
2022/07/08 09:10:00;;;;;;;6.35;2.13;;;;;;;;;;5052534;28;20052;-78
2022/07/08 09:12:26;;;;;;;7.07;2.05;;;;;;;;;;5060410;28;20037;-77
2022/07/08 09:14:52;;;;;;;4.38;1.50;;;20.00;99.90;;;;;;5070509;28;20040;-77
2022/07/08 09:17:18;;;;;;;5.13;1.92;;;;;;;;;;5069592;28;20450;-76
2022/07/08 09:19:49;;;;;;;9.52;2.50;;;20.20;99.90;;;;;;5063434;28;20440;-76
2022/07/08 09:22:15;;;;;;;6.50;2.10;;;;;;;;;;5037825;28;20065;-74
2022/07/08 09:24:43;;;;;;;5.60;2.10;;;20.40;99.90;;;;;;5057199;28;20055;-76
2022/07/08 09:27:10;;;;;;;6.72;1.58;;;20.40;99.90;;;;;;5059201;28;20398;-75
2022/07/08 09:29:39;;;;;;;9.13;1.58;;;;;;;;;;5064516;28;20045;-76
2022/07/08 09:32:12;;;;;;;6.97;1.77;;;20.40;99.90;;;;;;5057712;28;20118;-77
2022/07/08 09:34:38;;;;;;;5.78;1.42;;;;;;;;;;5054681;28;20429;-69
2022/07/08 09:37:15;;;;;;;5.68;1.75;;;20.40;99.90;;;;;;5035525;28;20037;-72
2022/07/08 09:39:42;;;;;;;7.63;2.30;;;;;;;;;;5055412;28;20485;-73
2022/07/08 09:42:09;;;;;;;5.00;1.83;;;;;;;;;;5045996;28;20040;-72
2022/07/08 09:44:35;;;;;;;3.92;1.60;;;20.40;99.90;;;;;;5066809;28;20033;-77
2022/07/08 09:47:14;;;;;;;7.95;2.13;;;20.20;99.90;;;;;;5052377;28;20044;-76
2022/07/08 09:49:45;;;;;;;7.90;2.45;;;20.20;99.90;;;;;;5051892;28;20041;-76
2022/07/08 09:52:11;;;;;;;6.90;2.15;;;;;;;;;;5051987;28;20059;-75
2022/07/08 09:54:37;;;;;;;6.20;1.85;;;;;;;;;;5052314;28;20048;-75
2022/07/08 09:57:07;;;;;;;5.88;1.77;;;20.50;99.90;;;;;;5051212;28;20045;-75
2022/07/08 09:59:35;;;;;;;6.63;1.75;;;20.50;99.90;;;;;;5052405;28;20482;-73
2022/07/08 10:02:01;;;;;;;5.30;1.73;;;;;;;;;;5052829;28;20124;-76
2022/07/08 10:04:28;;;;;;;6.88;1.67;;;20.50;99.90;;;;;;5051422;28;20037;-75
2022/07/08 10:06:55;;;;;;;7.95;2.40;;;20.60;99.90;;;;;;5051572;28;20044;-75
2022/07/08 10:09:23;;;;;;;7.10;2.30;;;20.60;99.90;;;;;;5051542;28;20367;-75
2022/07/08 10:11:49;;;;;;;7.65;2.83;;;;;;;;;;5051676;28;20041;-76
2022/07/08 10:14:16;;;;;;;9.43;2.53;;;21.10;99.90;;;;;;5051798;28;20051;-76
2022/07/08 10:16:43;;;;;;;5.25;1.98;;;;;;;;;;5051315;28;20119;-76
2022/07/08 10:19:13;;;;;;;8.05;3.05;;;21.00;99.90;;;;;;5052865;28;20037;-77
2022/07/08 10:21:42;;;;;;;9.20;2.67;;;20.90;99.90;;;;;;5053131;28;20060;-76
2022/07/08 10:24:11;;;;;;;9.13;2.65;;;20.90;99.90;;;;;;5050764;28;20067;-77
2022/07/08 10:26:40;;;;;;;8.52;2.95;;;20.70;99.90;;;;;;5052068;28;20060;-75
2022/07/08 10:29:10;;;;;;;8.27;2.97;;;20.80;99.90;;;;;;5051228;28;20045;-75
2022/07/08 10:31:47;;;;;;;11.40;2.88;;;20.20;99.90;;;;;;5050928;28;20056;-74
2022/07/08 10:34:18;;;;;;;7.18;2.50;;;20.80;99.90;;;;;;5052826;28;20077;-75
2022/07/08 10:36:53;;;;;;;9.07;2.85;;;20.10;99.90;;;;;;5034559;28;20036;-75
2022/07/08 10:39:41;;;;;;;5.47;2.30;;;20.40;99.90;;;;;;5034179;28;20041;-73
2022/07/08 10:42:09;;;;;;;8.52;3.78;;;20.50;99.90;;;;;;5050796;28;20098;-73
2022/07/08 10:44:44;;;;;;;7.75;2.40;;;20.70;99.90;;;;;;5050940;28;20076;-73
2022/07/08 10:47:32;;;;;;;8.25;3.20;;;20.50;99.90;;;;;;5050979;28;20094;-74
2022/07/08 10:50:08;;;;;;;11.25;2.92;;;20.40;99.90;;;;;;5034331;28;20049;-73
2022/07/08 10:52:42;;;;;;;9.13;3.00;;;20.60;99.90;;;;;;5049953;28;20033;-73
2022/07/08 10:55:12;;;;;;;8.30;3.00;;;20.00;99.90;;;;;;5051325;28;20045;-74
2022/07/08 10:57:38;;;;;;;8.15;3.47;;;20.60;99.90;;;;;;5034753;28;20048;-74
2022/07/08 11:00:10;;;;;;;7.72;3.20;;;20.60;99.90;;;;;;5051289;28;20037;-72
2022/07/08 11:02:44;;;;;;;10.77;3.42;;;20.60;99.90;;;;;;5052392;28;20486;-75
2022/07/08 11:05:41;;;;;;;10.60;3.70;;;20.60;99.90;;;;;;5050895;28;20084;-73
2022/07/08 11:08:19;;;;;;;9.50;3.13;;;20.50;99.90;;;;;;5051926;28;20041;-73
2022/07/08 11:10:45;;;;;;;8.90;3.65;;;20.50;99.90;;;;;;5050700;28;20513;-73
2022/07/08 11:13:12;;;;;;;7.72;3.67;;;;;;;;;;5051158;28;20408;-73
2022/07/08 11:15:37;;;;;;;8.57;3.55;;;20.60;99.90;;;;;;5052208;28;20050;-72
2022/07/08 11:18:04;;;;;;;9.05;3.08;;;20.70;99.90;;;;;;5050666;28;20033;-73
2022/07/08 11:20:31;;;;;;;10.27;3.42;;;20.70;99.90;;;;;;5050339;28;20065;-73
2022/07/08 11:22:57;;;;;;;10.88;3.75;;;;;;;;;;5050172;28;20111;-72
2022/07/08 11:25:23;;;;;;;7.90;3.85;;;20.80;99.90;;;;;;5034295;28;20127;-72
2022/07/08 11:27:50;;;;;;;8.65;2.92;;;;;;;;;;5049698;28;20049;-72
2022/07/08 11:30:16;;;;;;;8.07;3.45;;;20.90;99.90;;;;;;5051783;28;20041;-75
2022/07/08 11:32:50;;;;;;;10.23;3.28;;;20.90;99.90;;;;;;5052154;28;20389;-76
2022/07/08 11:35:17;;;;;;;8.57;3.55;;;20.90;99.90;;;;;;5049735;28;20494;-75
2022/07/08 11:37:44;;;;;;;9.70;3.72;;;20.90;99.90;;;;;;5051608;28;20504;-75
2022/07/08 11:40:11;;;;;;;11.70;3.40;;;20.80;99.90;;;;;;5051706;28;20099;-75
2022/07/08 11:42:38;;;;;;;12.65;4.13;;;20.80;99.90;;;;;;5049864;28;20090;-74
2022/07/08 11:45:05;;;;;;;10.55;3.38;;;;;;;;;;5050487;28;20429;-74
2022/07/08 11:47:31;;;;;;;10.73;3.95;;;;;;;;;;5051041;28;20089;-75
2022/07/08 11:49:57;;;;;;;9.07;3.13;;;21.00;99.90;;;;;;5049215;28;20045;-76
2022/07/08 11:52:22;;;;;;;14.80;3.67;;;20.90;99.90;;;;;;5050425;28;20045;-74
2022/07/08 11:54:48;;;;;;;11.05;3.95;;;21.10;99.90;;;;;;5049554;28;20069;-76
2022/07/08 11:57:17;;;;;;;9.52;3.50;;;21.10;99.90;;;;;;5033744;28;20041;-75
2022/07/08 11:59:45;;;;;;;9.23;3.72;;;21.20;99.90;;;;;;5033977;28;20382;-75
2022/07/08 12:02:11;;;;;;;12.27;3.65;;;;;;;;;;5051033;28;20045;-75
2022/07/08 12:04:37;;;;;;;10.60;3.65;;;;;;;;;;5052410;28;20052;-76
2022/07/08 12:07:03;;;;;;;11.75;4.68;;;;;;;;;;5053912;28;20057;-76
2022/07/08 12:09:30;;;;;;;10.57;3.40;;;;;;;;;;5053577;28;20128;-75
2022/07/08 12:11:58;;;;;;;9.45;4.35;;;21.60;99.90;;;;;;5053518;28;20045;-74
2022/07/08 12:14:24;;;;;;;10.55;3.72;;;;;;;;;;5055530;28;20076;-75
2022/07/08 12:16:52;;;;;;;10.63;4.38;;;21.60;99.90;;;;;;5054345;28;20041;-73
2022/07/08 12:19:37;;;;;;;16.35;4.85;;;21.80;99.90;;;;;;5054002;28;20116;-73
2022/07/08 12:22:13;;;;;;;10.15;4.20;;;21.90;99.90;;;;;;5053432;28;20136;-72
2022/07/08 12:24:40;;;;;;;15.75;4.80;;;21.90;99.90;;;;;;5054761;28;20041;-74
2022/07/08 12:27:19;;;;;;;8.35;3.65;;;21.80;99.90;;;;;;5054768;28;20386;-74
2022/07/08 12:29:45;;;;;;;8.88;3.28;;;;;;;;;;5062964;28;20056;-73
2022/07/08 12:32:11;;;;;;;7.80;3.67;;;;;;;;;;5072121;28;20036;-72
2022/07/08 12:34:38;;;;;;;10.25;3.40;;;;;;;;;;5063139;28;20032;-72
2022/07/08 12:37:20;;;;;;;10.00;3.60;;;;;;;;;;5056438;28;20037;-69
2022/07/08 12:39:47;;;;;;;8.35;3.22;;;;;;;;;;5068807;28;20043;-71
2022/07/08 12:42:14;;;;;;;8.48;2.67;;;;;;;;;;5043910;28;20584;-72
2022/07/08 12:44:48;;;;;;;7.70;3.30;;;;;;;;;;5071189;28;20040;-77
2022/07/08 12:47:15;;;;;;;6.38;2.83;;;;;;;;;;5058201;28;20040;-74
2022/07/08 12:49:42;;;;;;;7.97;2.70;;;;;;;;;;5064444;28;20040;-73
2022/07/08 12:52:09;;;;;;;7.97;2.88;;;;;;;;;;5031943;28;20478;-72
2022/07/08 12:54:35;;;;;;;10.10;3.30;;;;;;;;;;5050382;28;20446;-73
2022/07/08 12:57:02;;;;;;;9.90;3.47;;;;;;;;;;5060946;28;20520;-75
2022/07/08 12:59:29;;;;;;;9.25;2.75;;;;;;;;;;5048850;28;20045;-73
2022/07/08 13:01:57;;;;;;;6.75;2.60;;;;;;;;;;5068611;28;20497;-73
2022/07/08 13:04:25;;;;;;;8.45;2.50;;;;;;;;;;5045072;28;20620;-73
2022/07/08 13:06:53;;;;;;;4.72;2.42;;;;;;;;;;5054078;28;20105;-73
2022/07/08 13:09:19;;;;;;;9.82;2.70;;;;;;;;;;5050284;28;20106;-73
2022/07/08 13:11:47;;;;;;;11.55;3.42;;;;;;;;;;5062731;28;20041;-72
2022/07/08 13:14:13;;;;;;;9.02;2.90;;;;;;;;;;5049242;28;20056;-72
2022/07/08 13:16:39;;;;;;;7.25;2.50;;;;;;;;;;5050380;28;20124;-72
2022/07/08 13:19:06;;;;;;;8.95;2.25;;;22.10;99.90;;;;;;5049420;28;20080;-74
2022/07/08 13:21:32;;;;;;;7.50;2.38;;;;;;;;;;5048181;28;20544;-75